Sandoval, Texas
Current Conditions -  °F | °C
As of 10:58 AM on Sunday 23 Nov 2014 (Local Time) from KGRK Reporting Station
Clear Clear  
Wind Chill: 69°   Ceiling: Unl
Heat Index: 69°   Visibility: 10mi
Dew Point: 45°   Wind: 18mph
Humidity: 42%   Direction: 250°WSW
Pressure: 29.6"   Gusts: 24mph
Location:  30.5793°N, 97.5096°W
Report Text: KGRK 231658Z AUTO 25016G21KT 10SM CLR 21/07 A2960 RMK AO2 SLP018 T02060073
Loading
Personal Weather Stations






























Interactive Weather Map New forecast layout! Learn more

10-Day Weather Forecast

Advertisements
Track Severe Weather on mobile